Snapper Creek, Florida
Current Conditions -  °F | °C
As of 12:53 PM on Saturday 20 Dec 2014 (Local Time) from KTMB Reporting Station
Broken Clouds Broken Clouds  
Wind Chill: 79°   Ceiling: 3800
Heat Index: 80°   Visibility: 10mi
Dew Point: 62°   Wind: 8mph
Humidity: 56%   Direction: 120°ESE
Pressure: 30.06"   Gusts: NA
Location:  25.6574°N, 80.359°W
Report Text: KTMB 201753Z 12007KT 10SM BKN038 26/17 A3006 RMK AO2 SLP178 T02610167 58016
Loading
Personal Weather Stations






























Interactive Weather Map New forecast layout! Learn more

10-Day Weather Forecast

Advertisements
Track Severe Weather on mobile